createdAt,value
2023-05-13T00:00:35.291Z,13.20
2023-05-13T00:03:05.172Z,15.00
2023-05-13T00:05:33.495Z,20.70
2023-05-13T00:08:06.904Z,19.60
2023-05-13T00:10:35.728Z,24.40
2023-05-13T00:13:04.211Z,23.80
2023-05-13T00:15:32.755Z,24.90
2023-05-13T00:18:01.117Z,27.90
2023-05-13T00:20:30.803Z,32.40
2023-05-13T00:22:59.296Z,30.90
2023-05-13T00:25:27.501Z,30.20
2023-05-13T00:27:55.831Z,26.70
2023-05-13T00:30:24.277Z,22.20
2023-05-13T00:32:52.854Z,19.40
2023-05-13T00:35:21.230Z,22.30
2023-05-13T00:37:50.863Z,21.10
2023-05-13T00:40:23.584Z,18.10
2023-05-13T00:42:52.967Z,19.00
2023-05-13T00:45:21.693Z,19.60
2023-05-13T00:47:50.647Z,18.40
2023-05-13T00:50:19.308Z,19.60
2023-05-13T00:52:51.714Z,18.90
2023-05-13T00:55:20.205Z,18.00
2023-05-13T00:57:48.512Z,19.90
2023-05-13T01:00:17.644Z,31.30
2023-05-13T01:02:53.231Z,30.00
2023-05-13T01:05:32.420Z,27.80
2023-05-13T01:08:17.460Z,27.40
2023-05-13T01:10:51.317Z,28.50
2023-05-13T01:13:24.926Z,30.50
2023-05-13T01:16:01.558Z,27.20
2023-05-13T01:18:39.154Z,23.30
2023-05-13T01:21:09.662Z,24.10
2023-05-13T01:23:39.547Z,23.30
2023-05-13T01:26:07.899Z,21.10
2023-05-13T01:28:36.332Z,21.60
2023-05-13T01:31:05.267Z,24.00
2023-05-13T01:33:34.552Z,26.00
2023-05-13T01:36:03.696Z,26.40
2023-05-13T01:38:33.925Z,30.90
2023-05-13T01:41:03.920Z,38.60
2023-05-13T01:43:32.298Z,41.10
2023-05-13T01:46:02.130Z,44.70
2023-05-13T01:48:30.349Z,49.00
2023-05-13T01:50:59.118Z,51.70
2023-05-13T01:53:27.424Z,53.40
2023-05-13T01:55:55.676Z,56.80
2023-05-13T01:58:25.394Z,67.10
2023-05-13T02:00:53.778Z,77.70
2023-05-13T02:03:22.585Z,87.70
2023-05-13T02:05:50.907Z,99.90
2023-05-13T02:08:19.209Z,91.70
2023-05-13T02:10:56.015Z,90.00
2023-05-13T02:13:26.400Z,78.10
2023-05-13T02:15:54.865Z,84.30
2023-05-13T02:18:23.287Z,96.60
2023-05-13T02:20:52.173Z,99.90
2023-05-13T02:23:20.409Z,99.90
2023-05-13T02:25:48.684Z,99.90
2023-05-13T02:28:17.006Z,99.90
2023-05-13T02:30:46.613Z,99.90
2023-05-13T02:33:14.877Z,99.90
2023-05-13T02:35:43.138Z,99.90
2023-05-13T02:38:11.911Z,99.90
2023-05-13T02:40:40.422Z,99.90
2023-05-13T02:43:08.602Z,99.90
2023-05-13T02:45:36.931Z,99.90
2023-05-13T02:48:06.823Z,99.90
2023-05-13T02:50:35.101Z,99.90
2023-05-13T02:53:03.339Z,99.90
2023-05-13T02:55:31.571Z,99.90
2023-05-13T02:57:59.796Z,98.60
2023-05-13T03:00:28.220Z,99.90
2023-05-13T03:02:57.685Z,99.90
2023-05-13T03:05:29.783Z,99.70
2023-05-13T03:07:58.549Z,97.30
2023-05-13T03:10:26.853Z,99.80
2023-05-13T03:12:55.460Z,96.60
2023-05-13T03:15:23.901Z,97.60
2023-05-13T03:17:52.408Z,92.80
2023-05-13T03:20:20.899Z,94.30
2023-05-13T03:22:50.902Z,99.90
2023-05-13T03:25:19.424Z,91.70
2023-05-13T03:27:47.604Z,79.70
2023-05-13T03:30:15.943Z,78.30
2023-05-13T03:32:44.436Z,80.30
2023-05-13T03:35:12.734Z,69.10
2023-05-13T03:37:40.928Z,70.20
2023-05-13T03:40:11.912Z,99.40
2023-05-13T03:42:40.155Z,97.00
2023-05-13T03:45:10.544Z,94.00
2023-05-13T03:47:39.525Z,99.90
2023-05-13T03:50:10.372Z,99.90
2023-05-13T03:52:38.735Z,99.00
2023-05-13T03:55:07.646Z,94.90
2023-05-13T03:57:37.211Z,93.60
2023-05-13T04:00:06.417Z,90.30
2023-05-13T04:02:35.097Z,97.50
2023-05-13T04:05:05.928Z,99.90
2023-05-13T04:07:34.314Z,99.90
2023-05-13T04:10:02.547Z,99.90
2023-05-13T04:12:30.951Z,99.90
2023-05-13T04:15:00.690Z,99.90
2023-05-13T04:17:29.591Z,93.30
2023-05-13T04:19:57.759Z,99.90
2023-05-13T04:22:26.479Z,99.90
2023-05-13T04:24:56.564Z,99.90
2023-05-13T04:27:25.106Z,99.90
2023-05-13T04:29:53.555Z,99.90
2023-05-13T04:32:23.225Z,87.20
2023-05-13T04:34:52.624Z,83.80
2023-05-13T04:37:20.858Z,68.10
2023-05-13T04:39:50.098Z,68.80
2023-05-13T04:42:18.576Z,69.10
2023-05-13T04:44:46.954Z,53.20
2023-05-13T04:47:15.255Z,63.10
2023-05-13T04:49:44.800Z,46.40
2023-05-13T04:52:13.680Z,45.70
2023-05-13T04:54:42.560Z,59.10
2023-05-13T04:57:10.926Z,48.10
2023-05-13T04:59:39.242Z,54.70
2023-05-13T05:02:07.537Z,61.90
2023-05-13T05:04:35.827Z,55.20
2023-05-13T05:07:05.975Z,55.20
2023-05-13T05:09:34.208Z,34.70
2023-05-13T05:12:02.603Z,31.10
2023-05-13T05:14:31.682Z,26.70
2023-05-13T05:17:00.001Z,28.70
2023-05-13T05:19:28.323Z,28.20
2023-05-13T05:21:56.714Z,28.00
2023-05-13T05:24:26.434Z,27.20
2023-05-13T05:26:54.636Z,18.20
2023-05-13T05:29:22.808Z,11.20
2023-05-13T05:31:51.073Z,7.60
2023-05-13T05:34:19.505Z,7.50
2023-05-13T05:36:47.719Z,7.00
2023-05-13T05:39:16.054Z,6.90
2023-05-13T05:41:47.095Z,2.90
2023-05-13T05:44:15.253Z,1.00
2023-05-13T05:46:43.476Z,1.00
2023-05-13T05:49:11.653Z,1.00
2023-05-13T05:51:39.764Z,15.50
2023-05-13T05:54:07.967Z,1.00
2023-05-13T05:56:36.128Z,4.60
2023-05-13T05:59:05.837Z,1.00
2023-05-13T06:01:36.713Z,1.00
2023-05-13T06:04:06.661Z,1.00
2023-05-13T06:06:35.594Z,1.00
2023-05-13T06:09:04.114Z,1.00
2023-05-13T06:11:32.561Z,1.00
2023-05-13T06:14:00.836Z,1.00
2023-05-13T06:16:30.638Z,1.00
2023-05-13T06:18:59.291Z,1.00
2023-05-13T06:21:27.698Z,1.00
2023-05-13T06:23:56.065Z,1.00
2023-05-13T06:26:24.453Z,1.00
2023-05-13T06:28:52.833Z,1.00
2023-05-13T06:31:21.016Z,1.00
2023-05-13T06:33:50.698Z,1.00
2023-05-13T06:36:18.999Z,1.00
2023-05-13T06:38:47.198Z,1.00
2023-05-13T06:41:15.578Z,1.00
2023-05-13T06:43:46.029Z,1.00
2023-05-13T06:46:14.240Z,1.00
2023-05-13T06:48:43.227Z,1.00
2023-05-13T06:51:12.851Z,1.00
2023-05-13T06:53:41.054Z,1.00
2023-05-13T06:56:09.224Z,1.00
2023-05-13T06:58:37.491Z,1.00
2023-05-13T07:01:05.890Z,1.00
2023-05-13T07:03:34.203Z,1.00
2023-05-13T07:06:02.470Z,1.00
2023-05-13T07:08:32.051Z,1.00
2023-05-13T07:11:00.369Z,1.00
2023-05-13T07:13:29.336Z,1.00
2023-05-13T07:15:58.850Z,1.00
2023-05-13T07:18:27.152Z,1.00
2023-05-13T07:20:56.248Z,1.00
2023-05-13T07:23:24.560Z,1.00
2023-05-13T07:25:54.281Z,1.00
2023-05-13T07:28:22.952Z,1.00
2023-05-13T07:30:53.462Z,1.00
2023-05-13T07:33:21.795Z,1.00
2023-05-13T07:35:50.006Z,1.00
2023-05-13T07:38:18.665Z,1.00
2023-05-13T07:40:46.943Z,1.00
2023-05-13T07:43:24.678Z,1.00
2023-05-13T07:45:54.620Z,1.00
2023-05-13T07:48:54.723Z,1.00
2023-05-13T07:51:18.818Z,1.00
2023-05-13T07:53:58.538Z,1.00
2023-05-13T07:59:28.766Z,1.00
2023-05-13T08:02:02.376Z,1.00
2023-05-13T08:04:30.993Z,1.00
2023-05-13T08:06:59.454Z,1.00
2023-05-13T08:09:27.691Z,1.00
2023-05-13T08:11:56.054Z,1.00
2023-05-13T08:14:25.730Z,1.00
2023-05-13T08:16:54.092Z,1.00
2023-05-13T08:19:22.579Z,1.00
2023-05-13T08:21:50.964Z,1.00
2023-05-13T08:24:19.223Z,1.00
2023-05-13T08:26:47.494Z,1.00
2023-05-13T08:29:15.877Z,1.00
2023-05-13T08:31:45.598Z,1.00
2023-05-13T08:34:13.848Z,1.00
2023-05-13T08:36:42.096Z,1.00
2023-05-13T08:39:10.299Z,1.00
2023-05-13T08:41:39.930Z,1.00
2023-05-13T08:44:13.419Z,1.00
2023-05-13T08:46:49.956Z,1.00
2023-05-13T08:49:18.524Z,1.00
2023-05-13T08:51:46.958Z,1.00
2023-05-13T08:54:16.501Z,1.00
2023-05-13T08:56:44.666Z,1.00
2023-05-13T08:59:12.839Z,1.00
2023-05-13T09:01:41.277Z,1.00
2023-05-13T09:04:12.542Z,1.00
2023-05-13T09:06:40.958Z,1.00
2023-05-13T09:09:09.766Z,1.00
2023-05-13T09:11:41.452Z,1.00
2023-05-13T09:14:12.101Z,1.00
2023-05-13T09:16:46.759Z,1.00
2023-05-13T09:19:16.757Z,1.00
2023-05-13T09:21:45.688Z,1.00
2023-05-13T09:24:18.834Z,1.00
2023-05-13T09:26:48.549Z,1.00
2023-05-13T09:29:23.104Z,1.00
2023-05-13T09:31:53.590Z,1.00
2023-05-13T09:34:31.579Z,1.00
2023-05-13T09:37:03.080Z,1.00
2023-05-13T09:39:34.324Z,1.00
2023-05-13T09:42:05.461Z,1.00
2023-05-13T09:44:35.046Z,1.00
2023-05-13T09:47:03.641Z,1.00
2023-05-13T09:49:33.612Z,1.00
2023-05-13T09:52:01.833Z,1.00
2023-05-13T09:54:37.073Z,1.00
2023-05-13T09:57:06.762Z,1.00
2023-05-13T09:59:35.720Z,1.00
2023-05-13T10:02:07.870Z,1.00
2023-05-13T10:04:37.942Z,1.00
2023-05-13T10:07:07.401Z,1.00
2023-05-13T10:09:38.583Z,1.00
2023-05-13T10:12:12.026Z,1.00
2023-05-13T10:14:41.308Z,1.00
2023-05-13T10:17:10.271Z,1.00
2023-05-13T10:19:40.845Z,1.00
2023-05-13T10:22:11.115Z,1.00
2023-05-13T10:24:40.804Z,1.00
2023-05-13T10:27:12.151Z,1.00
2023-05-13T10:29:41.571Z,1.00
2023-05-13T10:32:11.626Z,1.00
2023-05-13T10:34:43.956Z,1.00
2023-05-13T10:38:02.855Z,1.00
2023-05-13T10:40:56.640Z,1.00
2023-05-13T10:43:28.706Z,1.00
2023-05-13T10:46:00.898Z,1.00
2023-05-13T10:48:41.740Z,1.00
2023-05-13T10:51:16.660Z,1.00
2023-05-13T10:53:48.714Z,1.00
2023-05-13T10:56:20.576Z,1.00
2023-05-13T10:59:00.398Z,1.00
2023-05-13T11:01:31.280Z,1.00
2023-05-13T11:04:02.569Z,1.00
2023-05-13T11:06:37.281Z,1.00
2023-05-13T11:09:08.803Z,1.00
2023-05-13T11:11:37.552Z,1.00
2023-05-13T11:14:20.676Z,1.00
2023-05-13T11:16:55.987Z,1.00
2023-05-13T11:19:28.555Z,1.00
2023-05-13T11:22:05.673Z,1.00
2023-05-13T11:24:34.259Z,1.00
2023-05-13T11:27:15.604Z,1.00
2023-05-13T11:29:51.016Z,1.00
2023-05-13T11:32:56.273Z,1.00
2023-05-13T11:35:27.062Z,1.00
2023-05-13T11:37:59.866Z,1.00
2023-05-13T11:40:31.157Z,1.00
2023-05-13T11:43:01.405Z,1.00
2023-05-13T11:45:31.087Z,1.00
2023-05-13T11:47:59.649Z,1.00
2023-05-13T11:50:30.992Z,1.00
2023-05-13T11:53:02.820Z,1.00
2023-05-13T11:55:36.175Z,1.00
2023-05-13T11:58:07.669Z,1.00
2023-05-13T12:00:36.763Z,1.00
2023-05-13T12:03:14.187Z,1.00
2023-05-13T12:05:44.700Z,1.00
2023-05-13T12:08:14.610Z,1.00
2023-05-13T12:10:44.953Z,1.00
2023-05-13T12:13:13.934Z,1.00
2023-05-13T12:15:43.512Z,1.00
2023-05-13T12:18:12.057Z,1.00
2023-05-13T12:20:41.465Z,1.00
2023-05-13T12:23:13.036Z,1.00
2023-05-13T12:25:45.037Z,1.00
2023-05-13T12:28:17.759Z,1.00
2023-05-13T12:30:53.371Z,1.00
2023-05-13T12:33:25.362Z,1.00
2023-05-13T12:35:56.013Z,1.00
2023-05-13T12:38:26.258Z,1.00
2023-05-13T12:40:55.094Z,1.00
2023-05-13T12:43:24.203Z,1.00
2023-05-13T12:45:55.629Z,1.00
2023-05-13T12:48:27.210Z,1.00
2023-05-13T12:50:56.421Z,1.00
2023-05-13T12:53:26.187Z,1.00
2023-05-13T12:55:54.538Z,1.00
2023-05-13T12:58:22.745Z,1.00
2023-05-13T13:00:58.022Z,1.00
2023-05-13T13:03:26.393Z,1.00
2023-05-13T13:05:54.721Z,1.00
2023-05-13T13:08:25.135Z,1.00
2023-05-13T13:10:53.367Z,1.00
2023-05-13T13:13:21.891Z,1.00
2023-05-13T13:15:50.125Z,1.00
2023-05-13T13:18:19.556Z,1.00
2023-05-13T13:20:48.002Z,1.00
2023-05-13T13:23:16.210Z,1.00
2023-05-13T13:25:45.876Z,1.00
2023-05-13T13:28:22.900Z,1.00
2023-05-13T13:30:51.266Z,1.00
2023-05-13T13:33:20.053Z,1.00
2023-05-13T13:35:51.020Z,1.00
2023-05-13T13:38:19.314Z,1.00
2023-05-13T13:40:48.922Z,1.00
2023-05-13T13:43:17.509Z,1.00
2023-05-13T13:45:46.158Z,1.00
2023-05-13T13:48:14.971Z,1.00
2023-05-13T13:50:45.341Z,1.00
2023-05-13T13:53:15.078Z,1.00
2023-05-13T13:55:43.384Z,1.00
2023-05-13T13:58:12.943Z,1.00
2023-05-13T14:00:41.344Z,1.00
2023-05-13T14:03:09.678Z,1.00
2023-05-13T14:05:38.249Z,1.00
2023-05-13T14:08:07.871Z,1.00
2023-05-13T14:10:36.643Z,1.00
2023-05-13T14:13:04.906Z,1.00
2023-05-13T14:15:39.436Z,1.00
2023-05-13T14:18:08.505Z,1.00
2023-05-13T14:20:39.217Z,1.00
2023-05-13T14:23:07.482Z,1.00
2023-05-13T14:25:36.136Z,1.00
2023-05-13T14:28:04.376Z,1.00
2023-05-13T14:30:34.220Z,1.00
2023-05-13T14:33:02.567Z,1.00
2023-05-13T14:35:30.991Z,1.00
2023-05-13T14:37:59.441Z,1.00
2023-05-13T14:40:27.700Z,1.00
2023-05-13T14:42:56.012Z,1.00
2023-05-13T14:45:24.255Z,1.00
2023-05-13T14:47:54.152Z,1.00
2023-05-13T14:50:22.869Z,1.00
2023-05-13T14:52:51.284Z,1.00
2023-05-13T14:55:19.724Z,1.00
2023-05-13T14:57:48.088Z,1.00
2023-05-13T15:00:17.404Z,1.00
2023-05-13T15:02:45.921Z,1.00
2023-05-13T15:05:16.134Z,1.00
2023-05-13T15:07:45.388Z,1.00
2023-05-13T15:10:13.602Z,1.00
2023-05-13T15:12:42.039Z,1.00
2023-05-13T15:15:12.471Z,1.00
2023-05-13T15:17:40.803Z,1.00
2023-05-13T15:20:10.412Z,1.00
2023-05-13T15:22:40.221Z,1.00
2023-05-13T15:25:10.038Z,1.00
2023-05-13T15:27:38.289Z,1.00
2023-05-13T15:30:08.218Z,1.00
2023-05-13T15:32:36.543Z,1.00
2023-05-13T15:35:05.369Z,1.00
2023-05-13T15:37:33.622Z,1.00
2023-05-13T15:40:04.085Z,1.00
2023-05-13T15:42:32.273Z,1.00
2023-05-13T15:45:00.595Z,1.00
2023-05-13T15:47:29.183Z,1.00
2023-05-13T15:49:57.549Z,1.00
2023-05-13T15:52:25.797Z,1.00
2023-05-13T15:54:54.089Z,1.00
2023-05-13T15:57:23.717Z,1.00
2023-05-13T15:59:52.056Z,1.00
2023-05-13T16:02:20.226Z,1.00
2023-05-13T16:04:48.541Z,1.00
2023-05-13T16:07:16.868Z,1.00
2023-05-13T16:09:45.115Z,1.00
2023-05-13T16:12:13.665Z,1.00
2023-05-13T16:14:43.399Z,1.00
2023-05-13T16:17:12.837Z,1.00
2023-05-13T16:19:41.371Z,1.00
2023-05-13T16:22:33.650Z,1.00
2023-05-13T16:25:05.440Z,1.00
2023-05-13T16:27:35.476Z,1.00
2023-05-13T16:30:08.177Z,1.00
2023-05-13T16:32:36.728Z,1.00
2023-05-13T16:35:05.786Z,1.00
2023-05-13T16:37:35.806Z,1.00
2023-05-13T16:40:04.935Z,1.00
2023-05-13T16:42:33.254Z,1.00
2023-05-13T16:45:01.685Z,1.00
2023-05-13T16:47:31.617Z,1.00
2023-05-13T16:49:59.910Z,1.00
2023-05-13T16:52:29.315Z,1.00
2023-05-13T16:54:59.007Z,1.00
2023-05-13T16:57:27.441Z,1.00
2023-05-13T16:59:55.628Z,1.00
2023-05-13T17:02:24.028Z,1.00
2023-05-13T17:04:53.703Z,1.00
2023-05-13T17:07:21.940Z,1.00
2023-05-13T17:09:50.246Z,1.00
2023-05-13T17:12:18.492Z,1.00
2023-05-13T17:14:46.712Z,1.00
2023-05-13T17:17:14.998Z,1.00
2023-05-13T17:19:43.324Z,1.00
2023-05-13T17:22:12.964Z,1.00
2023-05-13T17:24:41.153Z,1.00
2023-05-13T17:27:09.723Z,1.00
2023-05-13T17:29:38.068Z,1.00
2023-05-13T17:32:07.582Z,1.00
2023-05-13T17:34:35.869Z,1.00
2023-05-13T17:37:04.122Z,1.00
2023-05-13T17:39:33.848Z,1.00
2023-05-13T17:42:02.138Z,1.00
2023-05-13T17:44:30.357Z,1.00
2023-05-13T17:46:58.548Z,1.00
2023-05-13T17:49:26.758Z,1.00
2023-05-13T17:51:54.964Z,1.00
2023-05-13T17:54:23.221Z,1.00
2023-05-13T17:56:52.865Z,1.00
2023-05-13T17:59:21.085Z,1.00
2023-05-13T18:01:49.387Z,1.00
2023-05-13T18:04:17.611Z,1.00
2023-05-13T18:06:45.849Z,1.00
2023-05-13T18:09:14.099Z,9.00
2023-05-13T18:11:42.488Z,17.10
2023-05-13T18:14:12.394Z,24.60
2023-05-13T18:16:40.772Z,23.40
2023-05-13T18:19:09.086Z,26.00
2023-05-13T18:21:37.295Z,35.90
2023-05-13T18:24:06.591Z,39.70
2023-05-13T18:26:35.176Z,63.70
2023-05-13T18:29:03.520Z,69.10
2023-05-13T18:31:34.826Z,73.30
2023-05-13T18:34:04.524Z,61.00
2023-05-13T18:36:32.776Z,68.10
2023-05-13T18:39:01.357Z,88.60
2023-05-13T18:41:29.617Z,98.00
2023-05-13T18:43:57.813Z,99.90
2023-05-13T18:46:26.241Z,99.90
2023-05-13T18:48:55.986Z,99.90
2023-05-13T18:51:24.275Z,99.90
2023-05-13T18:53:52.721Z,99.90
2023-05-13T18:56:21.524Z,99.90
2023-05-13T18:58:49.827Z,99.90
2023-05-13T19:01:18.228Z,99.90
2023-05-13T19:03:46.951Z,99.90
2023-05-13T19:06:16.733Z,99.90
2023-05-13T19:08:45.490Z,99.90
2023-05-13T19:11:13.697Z,99.90
2023-05-13T19:13:47.262Z,99.90
2023-05-13T19:16:15.913Z,99.90
2023-05-13T19:18:44.198Z,99.90
2023-05-13T19:21:12.426Z,1.00
2023-05-13T19:23:42.006Z,1.00
2023-05-13T19:26:10.588Z,1.00
2023-05-13T19:28:39.846Z,1.00
2023-05-13T19:31:08.190Z,1.00
2023-05-13T19:33:37.301Z,1.00
2023-05-13T19:36:06.328Z,1.00
2023-05-13T19:38:35.021Z,1.00
2023-05-13T19:41:05.601Z,1.00
2023-05-13T19:43:33.874Z,1.00
2023-05-13T19:46:02.436Z,1.00
2023-05-13T19:48:31.114Z,67.60
2023-05-13T19:50:59.608Z,48.60
2023-05-13T19:53:27.954Z,41.20
2023-05-13T19:55:57.113Z,99.90
2023-05-13T19:58:27.038Z,99.90
2023-05-13T20:00:56.065Z,99.90
2023-05-13T20:03:24.552Z,99.90
2023-05-13T20:05:53.919Z,99.90
2023-05-13T20:08:22.890Z,99.90
2023-05-13T20:10:51.366Z,1.00
2023-05-13T20:13:20.465Z,1.00
2023-05-13T20:15:50.736Z,1.00
2023-05-13T20:18:19.352Z,1.00
2023-05-13T20:20:48.058Z,1.00
2023-05-13T20:23:16.798Z,1.00
2023-05-13T20:25:47.276Z,1.00
2023-05-13T20:28:15.805Z,1.00
2023-05-13T20:30:44.443Z,1.00
2023-05-13T20:33:14.598Z,1.00
2023-05-13T20:35:42.773Z,1.00
2023-05-13T20:38:11.563Z,1.00
2023-05-13T20:40:40.051Z,1.00
2023-05-13T20:43:08.261Z,1.00
2023-05-13T20:45:39.482Z,99.90
2023-05-13T20:48:09.108Z,1.00
2023-05-13T20:50:38.681Z,1.00
2023-05-13T20:53:07.279Z,70.40
2023-05-13T20:55:35.615Z,1.00
2023-05-13T20:58:03.833Z,1.00
2023-05-13T21:00:32.023Z,99.90
2023-05-13T21:03:00.921Z,1.00
2023-05-13T21:05:29.434Z,1.00
2023-05-13T21:07:59.216Z,1.00
2023-05-13T21:10:27.589Z,1.00
2023-05-13T21:12:55.973Z,1.00
2023-05-13T21:15:24.248Z,99.90
2023-05-13T21:17:52.542Z,99.90
2023-05-13T21:20:21.755Z,99.90
2023-05-13T21:22:50.647Z,1.00
2023-05-13T21:25:20.320Z,99.90
2023-05-13T21:27:50.101Z,1.00
2023-05-13T21:30:18.323Z,1.00
2023-05-13T21:32:46.643Z,99.90
2023-05-13T21:35:15.154Z,1.00
2023-05-13T21:37:45.283Z,1.00
2023-05-13T21:40:15.494Z,99.90
2023-05-13T21:42:45.071Z,1.00
2023-05-13T21:45:15.037Z,1.00
2023-05-13T21:47:43.561Z,1.00
2023-05-13T21:50:12.738Z,1.00
2023-05-13T21:52:41.340Z,99.90
2023-05-13T21:55:11.189Z,1.00
2023-05-13T21:57:39.733Z,1.00
2023-05-13T22:00:15.103Z,1.00
2023-05-13T22:02:43.490Z,1.00
2023-05-13T22:05:12.414Z,1.00
2023-05-13T22:07:40.830Z,99.90
2023-05-13T22:10:10.235Z,1.00
2023-05-13T22:12:38.483Z,99.90
2023-05-13T22:15:10.286Z,1.00
2023-05-13T22:17:38.581Z,99.90
2023-05-13T22:20:08.896Z,99.90
2023-05-13T22:22:37.150Z,99.90
2023-05-13T22:25:06.464Z,99.90
2023-05-13T22:27:34.695Z,1.00
2023-05-13T22:30:02.986Z,1.00
2023-05-13T22:32:34.321Z,93.80
2023-05-13T22:35:03.067Z,1.00
2023-05-13T22:37:31.309Z,1.00
2023-05-13T22:39:59.602Z,1.00
2023-05-13T22:42:27.918Z,99.90
2023-05-13T22:44:56.291Z,1.00
2023-05-13T22:47:24.688Z,99.90
2023-05-13T22:49:54.478Z,99.90
2023-05-13T22:52:22.965Z,1.00
2023-05-13T22:54:51.193Z,99.90
2023-05-13T22:57:19.501Z,1.00
2023-05-13T22:59:47.745Z,1.00
2023-05-13T23:02:15.936Z,1.00
2023-05-13T23:04:44.226Z,99.90
2023-05-13T23:07:13.929Z,1.00
2023-05-13T23:09:42.249Z,18.80
2023-05-13T23:12:10.623Z,1.00
2023-05-13T23:14:39.061Z,1.00
2023-05-13T23:17:07.937Z,99.90
2023-05-13T23:19:38.013Z,99.90
2023-05-13T23:22:06.436Z,1.00
2023-05-13T23:24:36.027Z,1.00
2023-05-13T23:27:04.852Z,99.90
2023-05-13T23:29:33.156Z,99.90
2023-05-13T23:32:01.382Z,1.00
2023-05-13T23:34:29.846Z,1.00
2023-05-13T23:36:58.067Z,1.00
2023-05-13T23:39:26.330Z,81.10
2023-05-13T23:41:56.108Z,99.90
2023-05-13T23:44:24.606Z,1.00
2023-05-13T23:46:52.835Z,1.00
2023-05-13T23:49:21.621Z,1.00
2023-05-13T23:51:50.016Z,1.00
2023-05-13T23:54:18.341Z,99.90
2023-05-13T23:56:46.768Z,99.90
2023-05-13T23:59:16.397Z,1.00
